WetterOnline ( https://www.wetteronline.de )

Wetter aktuell Rodenbach

Aktuelles Wetter: Offenbach (119m)

6-stündlich | Neueste Meldungen
Ortszeit Temperatur Wetter
Fr, 28.01. 19:00 2.2° C wolkig
Fr, 28.01. 13:00 6.7° C bewölkt
Fr, 28.01. 7:00 4.3° C leicht bewölkt
Fr, 28.01. 1:00 3.5° C leicht bewölkt
Do, 27.01. 19:00 2.3° C bedeckt
Do, 27.01. 13:00 1.3° C bewölkt
Do, 27.01. 7:00 0.7° C bedeckt
Do, 27.01. 1:00 0.9° C bedeckt
Ortszeit Temperatur Wetter
Sa, 29.01. 0:00 3.4° C bedeckt
Fr, 28.01. 23:50 3.4° C bedeckt
Fr, 28.01. 23:40 3.4° C bedeckt
Fr, 28.01. 23:30 3.4° C bewölkt
Fr, 28.01. 23:20 3.4° C bewölkt
Fr, 28.01. 23:10 3.3° C bedeckt
Fr, 28.01. 23:00 3.5° C bewölkt
Fr, 28.01. 22:30 3.6° C bedeckt
Fr, 28.01. 22:00 3.6° C bedeckt
Fr, 28.01. 21:30 3.7° C bedeckt
Fr, 28.01. 21:00 3.3° C bedeckt
Ortszeit Relative Feuchte Sichtweite
Fr, 28.01. 19:00 80% 29 km
Fr, 28.01. 13:00 57% 35 km
Fr, 28.01. 7:00 71% 35 km
Fr, 28.01. 1:00 89% 35 km
Do, 27.01. 19:00 87% 18 km
Do, 27.01. 13:00 87% 8 km
Do, 27.01. 7:00 80% 14 km
Do, 27.01. 1:00 80% 17 km
Ortszeit Relative Feuchte Sichtweite
Sa, 29.01. 0:00 85% 17 km
Fr, 28.01. 23:50 85% -
Fr, 28.01. 23:40 85% -
Fr, 28.01. 23:30 84% 21 km
Fr, 28.01. 23:20 84% -
Fr, 28.01. 23:10 84% -
Fr, 28.01. 23:00 82% 30 km
Fr, 28.01. 22:30 80% 30 km
Fr, 28.01. 22:00 79% 30 km
Fr, 28.01. 21:30 78% 40 km
Fr, 28.01. 21:00 77% 35 km
Ortszeit Niederschlagsmenge Niederschlagsart
Fr, 28.01. 19:00 0.1 l/m2 in 12 Std. -
Fr, 28.01. 13:00 0.1 l/m2 in 6 Std. Regen
Fr, 28.01. 7:00 0.4 l/m2 in 12 Std. Regen
Fr, 28.01. 1:00 0.4 l/m2 in 6 Std. Regen
Do, 27.01. 19:00 0.1 l/m2 in 12 Std. Sprühregen
Do, 27.01. 13:00 0.1 l/m2 in 6 Std. Sprühregen
Do, 27.01. 7:00 0.0 l/m2 in 12 Std. -
Do, 27.01. 1:00 0.0 l/m2 in 6 Std. -
Ortszeit Niederschlagsmenge Niederschlagsart
Sa, 29.01. 0:00 0.0 l/m2 in 1 Std. -
Fr, 28.01. 23:50 keine Meldung -
Fr, 28.01. 23:40 keine Meldung -
Fr, 28.01. 23:30 0.0 l/m2 in 1 Std. -
Fr, 28.01. 23:20 keine Meldung -
Fr, 28.01. 23:10 keine Meldung -
Fr, 28.01. 23:00 0.0 l/m2 in 1 Std. -
Fr, 28.01. 22:30 0.0 l/m2 in 1 Std. -
Fr, 28.01. 22:00 0.0 l/m2 in 1 Std. -
Fr, 28.01. 21:30 0.0 l/m2 in 1 Std. -
Fr, 28.01. 21:00 0.0 l/m2 in 1 Std. -
Ortszeit Stärke Spitze Richtung
km/h Bft. km/h Grad Sektor
Fr, 28.01. 19:00 4 1 32 180° S
Fr, 28.01. 13:00 14 3 29 300° NW
Fr, 28.01. 7:00 13 3 30 280° W
Fr, 28.01. 1:00 11 2 36 240° SW
Do, 27.01. 19:00 18 3 40 210° SW
Do, 27.01. 13:00 14 3 40 210° SW
Do, 27.01. 7:00 11 2 30 220° SW
Do, 27.01. 1:00 11 2 22 220° SW
Ortszeit Stärke Spitze Richtung
km/h Bft. km/h Grad Sektor
Sa, 29.01. 0:00 11 2 18 210° SW
Fr, 28.01. 23:50 11 2 - 210° SW
Fr, 28.01. 23:40 11 2 - 220° SW
Fr, 28.01. 23:30 11 2 19 220° SW
Fr, 28.01. 23:20 11 2 - 220° SW
Fr, 28.01. 23:10 7 2 - 220° SW
Fr, 28.01. 23:00 7 2 20 220° SW
Fr, 28.01. 22:30 11 2 22 220° SW
Fr, 28.01. 22:00 11 2 22 220° SW
Fr, 28.01. 21:30 7 2 14 210° SW
Fr, 28.01. 21:00 9 2 15 200° S
Ortszeit Untergrenze Bedeckung Gattung
total tief tief mittel hoch
Fr, 28.01. 19:00 3900 m 6/8 3/8 - - -
Fr, 28.01. 13:00 1080 m 8/8 7/8 - - -
Fr, 28.01. 7:00 1320 m 4/8 4/8 - - -
Fr, 28.01. 1:00 2100 m 4/8 1/8 - - -
Do, 27.01. 19:00 510 m 8/8 8/8 - - -
Do, 27.01. 13:00 240 m 7/8 7/8 - - -
Do, 27.01. 7:00 480 m 8/8 8/8 - - -
Do, 27.01. 1:00 390 m 8/8 8/8 - - -
Ortszeit Bedeckungsgrad in Achtel und Wolkenuntergrenze
Sa, 29.01. 0:00 3(660m) 8(2700m) 8(3600m)
Fr, 28.01. 23:50 3(660m) 8(2700m) 8(3600m)
Fr, 28.01. 23:40 8
Fr, 28.01. 23:30 7(2400m)
Fr, 28.01. 23:20 7(2400m)
Fr, 28.01. 23:10 8
Fr, 28.01. 23:00 6(2400m) 8(3000m)
Fr, 28.01. 22:30 8(2400m) 8(4200m)
Fr, 28.01. 22:00 8(2400m) 8(6900m)
Fr, 28.01. 21:30 8(2400m) 8(6000m) 8(7200m)
Fr, 28.01. 21:00 8(3000m) 8(7500m)
Ortszeit Luftdruck NN (hPa) Tendenz (hPa in 3 Std.)
Fr, 28.01. 19:00 1035 + 0,9
Fr, 28.01. 13:00 1034 + 0,7
Fr, 28.01. 7:00 1031 + 1,6
Fr, 28.01. 1:00 1028 + 1,4
Do, 27.01. 19:00 1025 - 0,1
Do, 27.01. 13:00 1027 - 1,1
Do, 27.01. 7:00 1030 - 0,6
Do, 27.01. 1:00 1032 - 0,8
Ortszeit Luftdruck NN (hPa) Tendenz (hPa in 3 Std.)
Sa, 29.01. 0:00 1034 - 1,3
Fr, 28.01. 23:50 1034 keine Meldung
Fr, 28.01. 23:40 1034 keine Meldung
Fr, 28.01. 23:30 1034 - 1,0
Fr, 28.01. 23:20 1034 keine Meldung
Fr, 28.01. 23:10 1034 keine Meldung
Fr, 28.01. 23:00 1034 - 0,9
Fr, 28.01. 22:30 1035 - 0,7
Fr, 28.01. 22:00 1035 - 0,4
Fr, 28.01. 21:30 1035 - 0,4
Fr, 28.01. 21:00 1035 + 0,2
Ortszeit Schneehöhe (cm)
Fr, 28.01. 19:00 0
Fr, 28.01. 13:00 0
Fr, 28.01. 7:00 0
Fr, 28.01. 1:00 0
Do, 27.01. 19:00 0
Do, 27.01. 13:00 0
Do, 27.01. 7:00 0
Do, 27.01. 1:00 0
Ortszeit Schneehöhe (cm)
Sa, 29.01. 0:00 0
Fr, 28.01. 23:50 0
Fr, 28.01. 23:40 0
Fr, 28.01. 23:30 0
Fr, 28.01. 23:20 0
Fr, 28.01. 23:10 0
Fr, 28.01. 23:00 0
Fr, 28.01. 22:30 0
Fr, 28.01. 22:00 0
Fr, 28.01. 21:30 0
Fr, 28.01. 21:00 0
Link zu dieser Seite / Seite empfehlen

Das Wetter in ...